Time;durP1;ratioP1;P1;durP2;ratioP2;P2;SDS_P1;SDS_P2;PMS_P1;PMS_P2;Temp;Humidity;BMP_temperature;BMP_pressure;BME280_temperature;BME280_humidity;BME280_pressure;Samples;Min_cycle;Max_cycle;Signal;HPM_P1;HPM_P2
2024/02/13 00:01:41;;;;;;;9.37;4.23;;;3.20;99.90;;;;;;5007167;28;20192;-58
2024/02/13 00:04:10;;;;;;;3.80;3.10;;;3.10;99.90;;;;;;5006430;28;20453;-58
2024/02/13 00:06:37;;;;;;;3.50;2.60;;;3.10;99.90;;;;;;5005869;28;20408;-58
2024/02/13 00:09:04;;;;;;;4.20;2.47;;;3.10;99.90;;;;;;5005925;28;20554;-58
2024/02/13 00:11:30;;;;;;;4.33;2.80;;;3.00;99.90;;;;;;5009391;28;20455;-58
2024/02/13 00:13:56;;;;;;;3.33;1.83;;;3.00;99.90;;;;;;5010314;28;20447;-58
2024/02/13 00:16:22;;;;;;;5.07;2.07;;;2.90;99.90;;;;;;5009299;28;20965;-59
2024/02/13 00:18:49;;;;;;;3.93;2.50;;;2.90;99.90;;;;;;5008168;28;20442;-59
2024/02/13 00:21:14;;;;;;;6.77;2.33;;;2.90;99.90;;;;;;5006949;28;20965;-59
2024/02/13 00:23:40;;;;;;;3.67;2.30;;;2.90;99.90;;;;;;5010867;28;20627;-58
2024/02/13 00:26:09;;;;;;;3.90;2.90;;;2.90;99.90;;;;;;5008690;28;20188;-57
2024/02/13 00:28:37;;;;;;;5.00;2.93;;;2.90;99.90;;;;;;5004571;28;20722;-59
2024/02/13 00:31:05;;;;;;;6.23;3.47;;;3.00;99.90;;;;;;5005661;28;20470;-57
2024/02/13 00:33:31;;;;;;;6.30;2.67;;;3.00;99.90;;;;;;5007336;28;20840;-57
2024/02/13 00:35:57;;;;;;;4.37;3.10;;;3.10;99.90;;;;;;5009806;28;20490;-58
2024/02/13 00:38:24;;;;;;;4.07;3.23;;;3.10;99.90;;;;;;5008336;28;21011;-58
2024/02/13 00:40:49;;;;;;;4.17;3.63;;;3.20;99.90;;;;;;5010177;28;20295;-57
2024/02/13 00:43:19;;;;;;;4.07;3.00;;;3.20;99.90;;;;;;5007465;28;20912;-57
2024/02/13 00:45:48;;;;;;;7.43;3.07;;;3.20;99.90;;;;;;5008971;28;20183;-58
2024/02/13 00:48:17;;;;;;;7.47;3.70;;;3.20;99.90;;;;;;5004018;28;20447;-58
2024/02/13 00:50:44;;;;;;;5.23;3.23;;;3.20;99.90;;;;;;5009791;28;20439;-58
2024/02/13 00:53:10;;;;;;;8.17;3.33;;;3.20;99.90;;;;;;5009438;28;20533;-58
2024/02/13 00:55:37;;;;;;;8.40;4.00;;;3.20;99.90;;;;;;5010162;28;20464;-57
2024/02/13 00:58:03;;;;;;;9.73;3.67;;;3.20;99.90;;;;;;5007416;28;20438;-56
2024/02/13 01:00:28;;;;;;;5.77;3.33;;;3.30;99.90;;;;;;5007512;28;20451;-58
2024/02/13 01:02:55;;;;;;;6.90;3.37;;;3.20;99.90;;;;;;5003501;28;20545;-58
2024/02/13 01:05:21;;;;;;;5.97;4.13;;;3.30;99.90;;;;;;5007309;28;20279;-58
2024/02/13 01:07:47;;;;;;;13.40;4.50;;;3.30;99.90;;;;;;5007644;28;20486;-57
2024/02/13 01:10:15;;;;;;;6.23;2.73;;;3.30;99.90;;;;;;5008210;28;20436;-57
2024/02/13 01:12:41;;;;;;;4.70;2.90;;;3.20;99.90;;;;;;5009631;28;20188;-58
2024/02/13 01:15:07;;;;;;;4.10;2.53;;;3.20;99.90;;;;;;5007046;28;20488;-57
2024/02/13 01:17:33;;;;;;;5.23;2.70;;;3.10;99.90;;;;;;5005446;28;21158;-58
2024/02/13 01:19:59;;;;;;;3.47;2.57;;;3.10;99.90;;;;;;5005700;28;20436;-57
2024/02/13 01:22:24;;;;;;;5.00;3.07;;;3.10;99.90;;;;;;5006543;28;20427;-57
2024/02/13 01:24:51;;;;;;;7.83;3.03;;;3.10;99.90;;;;;;5007642;28;20177;-58
2024/02/13 01:27:19;;;;;;;6.50;3.37;;;3.10;99.90;;;;;;5005055;28;20187;-58
2024/02/13 01:29:44;;;;;;;5.17;3.00;;;3.10;99.90;;;;;;5009808;28;20438;-58
2024/02/13 01:32:10;;;;;;;6.80;3.03;;;3.10;99.90;;;;;;5006533;28;20427;-59
2024/02/13 01:34:36;;;;;;;7.00;3.63;;;3.20;99.90;;;;;;5008475;28;20173;-58
2024/02/13 01:37:01;;;;;;;8.70;3.53;;;3.20;99.90;;;;;;5006440;28;20699;-57
2024/02/13 01:39:27;;;;;;;5.50;3.30;;;3.20;99.90;;;;;;5007596;28;20191;-58
2024/02/13 01:41:53;;;;;;;15.83;3.57;;;3.20;99.90;;;;;;5006142;28;20214;-58
2024/02/13 01:44:19;;;;;;;11.10;3.50;;;3.20;99.90;;;;;;5006132;28;20180;-57
2024/02/13 01:46:46;;;;;;;6.30;3.27;;;3.20;99.90;;;;;;5006485;28;21007;-58
2024/02/13 01:49:12;;;;;;;6.80;3.57;;;3.20;99.90;;;;;;5008843;28;20487;-58
2024/02/13 01:51:40;;;;;;;9.53;3.53;;;3.20;99.90;;;;;;5011670;28;20972;-57
2024/02/13 01:54:10;;;;;;;9.47;3.60;;;3.20;99.90;;;;;;5001980;28;21080;-58
2024/02/13 01:56:38;;;;;;;4.83;3.70;;;3.10;99.90;;;;;;5005543;28;20459;-58
2024/02/13 01:59:05;;;;;;;6.37;2.80;;;3.10;99.90;;;;;;5007505;28;20442;-58
2024/02/13 02:01:32;;;;;;;6.87;3.10;;;3.10;99.90;;;;;;5008099;28;20551;-57
2024/02/13 02:03:59;;;;;;;5.73;2.60;;;3.00;99.90;;;;;;5005172;28;20494;-58
2024/02/13 02:06:25;;;;;;;5.20;2.43;;;2.90;99.90;;;;;;5007243;28;20438;-58
2024/02/13 02:08:52;;;;;;;3.00;2.70;;;2.90;99.90;;;;;;5007130;28;20494;-58
2024/02/13 02:11:18;;;;;;;5.53;2.70;;;2.80;99.90;;;;;;5008116;28;20467;-58
2024/02/13 02:13:44;;;;;;;3.67;2.50;;;2.80;99.90;;;;;;5002232;28;20438;-58
2024/02/13 02:16:10;;;;;;;5.80;2.70;;;2.70;99.90;;;;;;5005112;28;20199;-60
2024/02/13 02:18:36;;;;;;;3.40;2.23;;;2.70;99.90;;;;;;5006750;28;20441;-58
2024/02/13 02:21:01;;;;;;;5.07;3.00;;;2.70;99.90;;;;;;5006052;28;20463;-59
2024/02/13 02:23:27;;;;;;;6.93;2.90;;;2.70;99.90;;;;;;5004518;28;20268;-58
2024/02/13 02:25:53;;;;;;;5.50;2.90;;;2.70;99.90;;;;;;5005979;28;20208;-58
2024/02/13 02:28:19;;;;;;;4.33;2.90;;;2.70;99.90;;;;;;5005849;28;20200;-58
2024/02/13 02:30:46;;;;;;;5.90;2.70;;;2.70;99.90;;;;;;5003985;28;20767;-59
2024/02/13 02:33:12;;;;;;;5.37;3.63;;;2.70;99.90;;;;;;5003717;28;20438;-57
2024/02/13 02:35:38;;;;;;;5.43;3.70;;;2.70;99.90;;;;;;5006319;28;20554;-59
2024/02/13 02:38:04;;;;;;;10.07;4.27;;;2.70;99.90;;;;;;5007689;28;20416;-58
2024/02/13 02:40:30;;;;;;;7.50;2.97;;;2.70;99.90;;;;;;5004613;28;20522;-59
2024/02/13 02:42:55;;;;;;;5.30;3.03;;;2.70;99.90;;;;;;5004667;28;20598;-58
2024/02/13 02:45:22;;;;;;;5.03;3.20;;;2.60;99.90;;;;;;5006264;28;20184;-58
2024/02/13 02:47:47;;;;;;;3.17;2.70;;;2.60;99.90;;;;;;5005974;28;20526;-56
2024/02/13 02:50:13;;;;;;;3.47;2.83;;;2.50;99.90;;;;;;5006767;28;20454;-58
2024/02/13 02:52:39;;;;;;;10.50;3.17;;;2.50;99.90;;;;;;5007390;28;20651;-58
2024/02/13 02:55:05;;;;;;;5.17;2.80;;;2.50;99.90;;;;;;5008387;28;20226;-59
2024/02/13 02:57:32;;;;;;;4.10;2.37;;;2.40;99.90;;;;;;5003134;28;20169;-57
2024/02/13 02:59:58;;;;;;;7.00;2.20;;;2.40;99.90;;;;;;5008199;28;20416;-58
2024/02/13 03:02:24;;;;;;;3.37;2.33;;;2.30;99.90;;;;;;5004339;28;20539;-58
2024/02/13 03:04:49;;;;;;;5.03;2.93;;;2.30;99.90;;;;;;5006003;28;20477;-58
2024/02/13 03:07:15;;;;;;;4.50;2.47;;;2.30;99.90;;;;;;5005313;28;20184;-57
2024/02/13 03:09:41;;;;;;;16.03;2.37;;;2.30;99.90;;;;;;5007630;28;20181;-59
2024/02/13 03:12:07;;;;;;;3.53;2.07;;;2.20;99.90;;;;;;5006633;28;20689;-57
2024/02/13 03:14:32;;;;;;;5.30;2.80;;;2.20;99.90;;;;;;5007992;28;20183;-57
2024/02/13 03:16:58;;;;;;;9.87;2.70;;;2.20;99.90;;;;;;5007257;28;20462;-58
2024/02/13 03:19:23;;;;;;;4.17;2.83;;;2.20;99.90;;;;;;5004993;28;20182;-58
2024/02/13 03:21:49;;;;;;;6.40;3.00;;;2.20;99.90;;;;;;5000890;28;20223;-59
2024/02/13 03:24:15;;;;;;;4.53;2.67;;;2.20;99.90;;;;;;5006252;28;20168;-57
2024/02/13 03:26:40;;;;;;;3.03;2.37;;;2.30;99.90;;;;;;5004562;28;20679;-59
2024/02/13 03:29:06;;;;;;;6.23;2.70;;;2.30;99.90;;;;;;5001700;28;20184;-58
2024/02/13 03:31:32;;;;;;;5.83;2.53;;;2.30;99.90;;;;;;5004315;28;20235;-57
2024/02/13 03:33:57;;;;;;;3.20;2.60;;;2.40;99.90;;;;;;5006248;28;20411;-59
2024/02/13 03:36:23;;;;;;;4.27;3.00;;;2.30;99.90;;;;;;5005229;28;20243;-58
2024/02/13 03:38:49;;;;;;;6.50;3.23;;;2.30;99.90;;;;;;5005716;28;20234;-58
2024/02/13 03:41:15;;;;;;;8.23;3.27;;;2.30;99.90;;;;;;5005445;28;20208;-58
2024/02/13 03:43:43;;;;;;;7.90;3.53;;;2.40;99.90;;;;;;5006734;28;20439;-58
2024/02/13 03:46:09;;;;;;;7.50;3.80;;;2.30;99.90;;;;;;5008764;28;20489;-58
2024/02/13 03:48:36;;;;;;;9.33;4.10;;;2.30;99.90;;;;;;5010489;28;20848;-58
2024/02/13 03:51:02;;;;;;;8.47;4.00;;;2.30;99.90;;;;;;5008487;28;20451;-57
2024/02/13 03:53:29;;;;;;;9.37;3.67;;;2.30;99.90;;;;;;5004205;28;20479;-58
2024/02/13 03:55:54;;;;;;;7.07;3.27;;;2.30;99.90;;;;;;5008715;28;20459;-58
2024/02/13 03:58:20;;;;;;;4.73;3.30;;;2.30;99.90;;;;;;5010122;28;21117;-57
2024/02/13 04:00:45;;;;;;;6.87;3.77;;;2.30;99.90;;;;;;5010836;28;20314;-58
2024/02/13 04:03:11;;;;;;;10.13;4.13;;;2.30;99.90;;;;;;5008959;28;20190;-58
2024/02/13 04:05:38;;;;;;;5.90;3.50;;;2.30;99.90;;;;;;5010503;28;20682;-58
2024/02/13 04:08:06;;;;;;;6.70;4.37;;;2.30;99.90;;;;;;5006612;28;20180;-58
2024/02/13 04:10:32;;;;;;;7.57;3.70;;;2.20;99.90;;;;;;5009626;28;20446;-58
2024/02/13 04:12:58;;;;;;;7.80;4.00;;;2.20;99.90;;;;;;5009109;28;20504;-57
2024/02/13 04:15:23;;;;;;;7.87;3.60;;;2.10;99.90;;;;;;5009068;28;20466;-59
2024/02/13 04:17:50;;;;;;;7.97;3.33;;;2.10;99.90;;;;;;5008637;28;20200;-57
2024/02/13 04:20:16;;;;;;;11.50;4.50;;;2.00;99.90;;;;;;5010217;28;20665;-57
2024/02/13 04:22:42;;;;;;;10.03;5.13;;;2.00;99.90;;;;;;5004810;28;20553;-57
2024/02/13 04:25:08;;;;;;;7.47;4.27;;;2.00;99.90;;;;;;5009130;28;20406;-58
2024/02/13 04:27:37;;;;;;;10.70;4.57;;;1.90;99.90;;;;;;5008859;28;20417;-58
2024/02/13 04:30:10;;;;;;;9.60;4.47;;;1.90;99.90;;;;;;5006683;28;20508;-58
2024/02/13 04:32:38;;;;;;;9.10;4.00;;;1.80;99.90;;;;;;5005743;28;20412;-58
2024/02/13 04:35:05;;;;;;;6.13;3.80;;;1.80;99.90;;;;;;5008896;28;21007;-57
2024/02/13 04:37:31;;;;;;;5.20;3.10;;;1.80;99.90;;;;;;5004035;28;20432;-58
2024/02/13 04:39:57;;;;;;;19.80;3.77;;;1.80;99.90;;;;;;5007199;28;20485;-58
2024/02/13 04:42:36;;;;;;;6.93;3.40;;;1.70;99.90;;;;;;5005832;28;21763;-58
2024/02/13 04:45:03;;;;;;;6.37;3.67;;;1.70;99.90;;;;;;5005875;28;20643;-57
2024/02/13 04:47:30;;;;;;;6.50;4.20;;;1.70;99.90;;;;;;5006782;28;20512;-58
2024/02/13 04:50:00;;;;;;;5.53;3.73;;;1.70;99.90;;;;;;5005158;28;20437;-59
2024/02/13 04:52:27;;;;;;;10.33;3.60;;;1.70;99.90;;;;;;5007119;28;20444;-58
2024/02/13 04:54:53;;;;;;;9.20;4.00;;;1.70;99.90;;;;;;4999542;28;20438;-58
2024/02/13 04:57:19;;;;;;;6.10;3.80;;;1.70;99.90;;;;;;4996157;28;20481;-58
2024/02/13 04:59:48;;;;;;;5.20;4.00;;;1.70;99.90;;;;;;5005811;28;20414;-59
2024/02/13 05:02:21;;;;;;;10.07;4.63;;;1.70;99.90;;;;;;5004121;28;21338;-61
2024/02/13 05:07:32;;;;;;;16.13;4.50;;;1.60;99.90;;;;;;5002131;28;20468;-58
2024/02/13 05:09:58;;;;;;;8.30;4.33;;;1.60;99.90;;;;;;5006733;28;20463;-61
2024/02/13 05:12:25;;;;;;;6.83;4.73;;;1.60;99.90;;;;;;5004547;28;20491;-60
2024/02/13 05:14:52;;;;;;;9.53;4.17;;;1.50;99.90;;;;;;5002988;28;20491;-57
2024/02/13 05:17:23;;;;;;;8.73;5.03;;;1.50;99.90;;;;;;5000273;28;20460;-57
2024/02/13 05:19:49;;;;;;;11.37;5.67;;;1.50;99.90;;;;;;5001878;28;20435;-56
2024/02/13 05:22:16;;;;;;;11.63;6.60;;;1.40;99.90;;;;;;5005758;28;20424;-57
2024/02/13 05:24:42;;;;;;;13.20;6.30;;;1.40;99.90;;;;;;5002760;28;20431;-57
2024/02/13 05:27:08;;;;;;;11.10;6.30;;;1.40;99.90;;;;;;5002923;28;20431;-58
2024/02/13 05:29:35;;;;;;;9.07;5.53;;;1.40;99.90;;;;;;5006895;28;20426;-57
2024/02/13 05:32:02;;;;;;;11.03;5.27;;;1.40;99.90;;;;;;5004310;28;20204;-56
2024/02/13 05:34:28;;;;;;;15.37;5.17;;;1.40;99.90;;;;;;4995683;28;20479;-58
2024/02/13 05:36:58;;;;;;;6.80;4.73;;;1.40;99.90;;;;;;5003545;28;20460;-57
2024/02/13 05:39:27;;;;;;;8.07;4.50;;;1.40;99.90;;;;;;5004688;28;20204;-57
2024/02/13 05:41:54;;;;;;;8.20;4.30;;;1.40;99.90;;;;;;4995625;28;20458;-56
2024/02/13 05:44:19;;;;;;;7.70;3.73;;;1.50;99.90;;;;;;5002986;28;20418;-57
2024/02/13 05:46:45;;;;;;;10.10;3.80;;;1.50;99.90;;;;;;5004378;28;20419;-57
2024/02/13 05:49:11;;;;;;;8.70;3.77;;;1.60;99.90;;;;;;5001736;28;20213;-57
2024/02/13 05:51:36;;;;;;;9.13;3.40;;;1.60;99.90;;;;;;5004768;28;20203;-58
2024/02/13 05:54:05;;;;;;;9.27;4.50;;;1.60;99.90;;;;;;5005359;28;20176;-57
2024/02/13 05:56:32;;;;;;;9.60;4.67;;;1.60;99.90;;;;;;5003716;28;20652;-57
2024/02/13 05:59:00;;;;;;;10.37;4.17;;;1.50;99.90;;;;;;5007252;28;20467;-57
2024/02/13 06:01:32;;;;;;;8.37;3.90;;;1.50;99.90;;;;;;5008916;28;20434;-57
2024/02/13 06:04:05;;;;;;;4.27;3.50;;;1.40;99.90;;;;;;5007247;28;20493;-57
2024/02/13 06:06:33;;;;;;;11.87;4.57;;;1.40;99.90;;;;;;5007496;28;20434;-57
2024/02/13 06:08:58;;;;;;;14.80;7.30;;;1.30;99.90;;;;;;5005279;28;20430;-57
2024/02/13 06:11:25;;;;;;;14.43;6.00;;;1.30;99.90;;;;;;5003701;28;20443;-58
2024/02/13 06:13:51;;;;;;;10.40;7.20;;;1.20;99.90;;;;;;5007200;28;20184;-58
2024/02/13 06:16:17;;;;;;;11.37;7.03;;;1.20;99.90;;;;;;5008466;28;20455;-58
2024/02/13 06:18:46;;;;;;;13.43;7.23;;;1.10;99.90;;;;;;5008085;28;20438;-57
2024/02/13 06:21:18;;;;;;;14.33;5.67;;;1.10;99.90;;;;;;5004062;28;20458;-58
2024/02/13 06:23:44;;;;;;;9.63;4.30;;;1.10;99.90;;;;;;5008546;28;20896;-58
2024/02/13 06:26:11;;;;;;;6.90;4.00;;;1.10;99.90;;;;;;5005521;28;20985;-58
2024/02/13 06:28:36;;;;;;;11.03;4.43;;;1.10;99.90;;;;;;5008049;28;20861;-58
2024/02/13 06:31:03;;;;;;;9.47;4.87;;;1.10;99.90;;;;;;5005509;28;20459;-57
2024/02/13 06:33:29;;;;;;;12.47;4.70;;;1.10;99.90;;;;;;5007880;28;20238;-58
2024/02/13 06:35:55;;;;;;;8.50;3.97;;;1.00;99.90;;;;;;5005218;28;20985;-58
2024/02/13 06:38:24;;;;;;;9.43;4.27;;;1.00;99.90;;;;;;5006649;28;20431;-58
2024/02/13 06:40:50;;;;;;;6.67;4.53;;;0.90;99.90;;;;;;5006438;28;21038;-56
2024/02/13 06:43:17;;;;;;;6.20;4.30;;;0.90;99.90;;;;;;5004412;28;20425;-58
2024/02/13 06:45:42;;;;;;;9.63;4.10;;;0.90;99.90;;;;;;5003414;28;20446;-57
2024/02/13 06:48:08;;;;;;;7.47;4.40;;;1.00;99.90;;;;;;5004011;28;20437;-57
2024/02/13 06:50:34;;;;;;;9.30;5.13;;;1.00;99.90;;;;;;5007156;28;20604;-59
2024/02/13 06:53:00;;;;;;;11.93;6.20;;;1.00;99.90;;;;;;5000409;28;20172;-58
2024/02/13 06:55:26;;;;;;;11.10;5.47;;;1.00;99.90;;;;;;4998538;28;20263;-58
2024/02/13 06:57:52;;;;;;;12.43;6.57;;;1.00;99.90;;;;;;4996621;28;20226;-57
2024/02/13 07:00:19;;;;;;;11.47;5.63;;;1.00;99.90;;;;;;4997019;28;20458;-57
2024/02/13 07:02:46;;;;;;;17.40;7.33;;;1.00;99.90;;;;;;5002125;28;20438;-58
2024/02/13 07:05:12;;;;;;;14.80;8.63;;;1.00;99.90;;;;;;5002278;28;20810;-58
2024/02/13 07:07:37;;;;;;;18.70;9.30;;;1.00;99.90;;;;;;5004756;28;20799;-59
2024/02/13 07:10:04;;;;;;;20.37;10.20;;;1.00;99.90;;;;;;5007202;28;21074;-58
2024/02/13 07:12:30;;;;;;;28.20;7.60;;;1.10;99.90;;;;;;5005045;28;20186;-58
2024/02/13 07:14:55;;;;;;;27.40;7.83;;;1.10;99.90;;;;;;5006928;28;20416;-58
2024/02/13 07:17:22;;;;;;;22.97;8.53;;;1.10;99.90;;;;;;5005095;28;20370;-57
2024/02/13 07:19:47;;;;;;;54.00;18.07;;;1.10;99.90;;;;;;5010421;28;20732;-57
2024/02/13 07:22:14;;;;;;;51.17;10.33;;;1.10;99.90;;;;;;5011772;28;20566;-58
2024/02/13 07:24:40;;;;;;;175.13;11.60;;;1.10;99.90;;;;;;5011586;28;20222;-57
2024/02/13 07:27:07;;;;;;;86.53;10.30;;;1.10;99.90;;;;;;5005585;28;20445;-57
2024/02/13 07:29:33;;;;;;;80.33;11.00;;;1.10;99.90;;;;;;5011319;28;20426;-58
2024/02/13 07:32:00;;;;;;;187.20;12.73;;;1.00;99.90;;;;;;5007838;28;20491;-58
2024/02/13 07:34:27;;;;;;;123.23;10.50;;;1.00;99.90;;;;;;5008461;28;20417;-57
2024/02/13 07:36:53;;;;;;;101.73;14.37;;;1.00;99.90;;;;;;5006306;28;20458;-58
2024/02/13 07:39:19;;;;;;;161.33;15.20;;;1.00;99.90;;;;;;5009808;28;20417;-58
2024/02/13 07:41:44;;;;;;;172.27;14.83;;;1.00;99.90;;;;;;5007217;28;20989;-59
2024/02/13 07:44:10;;;;;;;159.93;10.70;;;1.00;99.90;;;;;;5009219;28;20739;-58
2024/02/13 07:46:37;;;;;;;40.47;8.37;;;1.00;99.90;;;;;;5009671;28;20184;-58
2024/02/13 07:49:04;;;;;;;72.50;8.77;;;1.00;99.90;;;;;;5011321;28;20411;-58
2024/02/13 07:51:30;;;;;;;48.40;8.10;;;1.00;99.90;;;;;;5008090;28;20512;-58
2024/02/13 07:53:57;;;;;;;60.37;9.73;;;1.00;99.90;;;;;;5007808;28;20504;-58
2024/02/13 07:56:28;;;;;;;22.93;6.90;;;1.00;99.90;;;;;;5005315;28;20541;-58
2024/02/13 07:58:57;;;;;;;87.13;10.27;;;1.00;99.90;;;;;;5009738;28;20422;-58
2024/02/13 08:01:23;;;;;;;66.53;8.80;;;1.10;99.90;;;;;;5006946;28;20458;-58
2024/02/13 08:03:48;;;;;;;101.40;9.90;;;1.10;99.90;;;;;;5007939;28;20438;-59
2024/02/13 08:06:14;;;;;;;14.10;6.73;;;1.10;99.90;;;;;;5009661;28;20434;-58
2024/02/13 08:08:40;;;;;;;27.30;7.50;;;1.10;99.90;;;;;;5006599;28;20207;-58
2024/02/13 08:11:06;;;;;;;76.50;9.53;;;1.10;99.90;;;;;;5006400;28;20989;-58
2024/02/13 08:13:32;;;;;;;25.43;8.37;;;1.20;99.90;;;;;;5006914;28;20191;-58
2024/02/13 08:15:58;;;;;;;54.77;9.70;;;1.20;99.90;;;;;;5005210;28;20459;-58
2024/02/13 08:18:24;;;;;;;51.67;9.07;;;1.20;99.90;;;;;;5008164;28;21127;-59
2024/02/13 08:20:50;;;;;;;25.87;7.37;;;1.20;99.90;;;;;;5007896;28;20230;-58
2024/02/13 08:23:17;;;;;;;74.97;10.47;;;1.30;99.90;;;;;;5009493;28;20470;-58
2024/02/13 08:25:43;;;;;;;83.00;11.00;;;1.30;99.90;;;;;;5010041;28;20177;-58
2024/02/13 08:28:11;;;;;;;43.70;9.50;;;1.30;99.90;;;;;;5006523;28;20435;-58
2024/02/13 08:30:36;;;;;;;84.83;12.20;;;1.30;99.90;;;;;;5006425;28;20226;-59
2024/02/13 08:33:04;;;;;;;33.57;10.83;;;1.30;99.90;;;;;;5004164;28;21469;-59
2024/02/13 08:35:30;;;;;;;23.53;10.93;;;1.40;99.90;;;;;;5010271;28;20254;-58
2024/02/13 08:37:56;;;;;;;32.67;11.27;;;1.40;99.90;;;;;;5009990;28;20422;-58
2024/02/13 08:40:21;;;;;;;29.87;10.23;;;1.50;99.90;;;;;;5007871;28;20520;-58
2024/02/13 08:42:47;;;;;;;33.30;10.40;;;1.50;99.90;;;;;;5007917;28;20188;-59
2024/02/13 08:45:13;;;;;;;34.60;10.70;;;1.60;99.90;;;;;;5004259;28;20229;-59
2024/02/13 08:47:39;;;;;;;24.53;10.80;;;1.60;99.90;;;;;;5010120;28;20469;-58
2024/02/13 08:50:07;;;;;;;37.57;12.63;;;1.70;99.90;;;;;;5008767;28;20184;-58
2024/02/13 08:52:33;;;;;;;68.40;15.03;;;1.70;99.90;;;;;;5009641;28;20435;-58
2024/02/13 08:54:58;;;;;;;29.07;12.53;;;1.70;99.90;;;;;;5009922;28;20996;-59
2024/02/13 08:57:24;;;;;;;32.07;12.10;;;1.70;99.90;;;;;;5005026;28;20469;-58
2024/02/13 08:59:52;;;;;;;30.13;13.13;;;1.80;99.90;;;;;;5008526;28;20419;-59
2024/02/13 09:02:18;;;;;;;31.80;13.40;;;1.90;99.90;;;;;;5005799;28;20180;-58
2024/02/13 09:04:48;;;;;;;36.87;14.73;;;1.90;99.90;;;;;;5005388;28;20436;-60
2024/02/13 09:07:14;;;;;;;48.93;15.93;;;2.00;99.90;;;;;;4999565;28;20529;-60
2024/02/13 09:09:39;;;;;;;64.43;17.40;;;2.20;99.90;;;;;;5007217;28;20459;-59
2024/02/13 09:12:08;;;;;;;56.23;18.33;;;2.20;99.90;;;;;;5008157;28;20657;-59
2024/02/13 09:14:34;;;;;;;53.83;17.07;;;2.30;99.90;;;;;;5007169;28;20165;-59
2024/02/13 09:17:00;;;;;;;89.87;20.37;;;2.40;99.90;;;;;;5003738;28;20849;-59
2024/02/13 09:19:26;;;;;;;56.70;19.83;;;2.40;99.90;;;;;;5003855;28;20501;-59
2024/02/13 09:21:52;;;;;;;55.53;19.87;;;2.50;99.90;;;;;;5006201;28;20529;-59
2024/02/13 09:24:17;;;;;;;60.70;18.60;;;2.50;99.90;;;;;;5011050;28;20918;-58
2024/02/13 09:26:43;;;;;;;55.53;18.30;;;2.60;99.90;;;;;;5001555;28;20678;-58
2024/02/13 09:29:09;;;;;;;52.30;17.33;;;2.70;99.90;;;;;;5004397;28;20238;-58
2024/02/13 09:31:34;;;;;;;44.43;16.43;;;2.80;99.90;;;;;;5008649;28;20188;-58
2024/02/13 09:34:00;;;;;;;35.40;15.70;;;2.90;99.90;;;;;;5007241;28;20275;-59
2024/02/13 09:36:27;;;;;;;42.57;15.90;;;3.00;99.90;;;;;;5009337;28;20247;-58
2024/02/13 09:38:53;;;;;;;37.80;15.30;;;3.10;99.90;;;;;;5008755;28;20463;-58
2024/02/13 09:41:20;;;;;;;45.87;16.70;;;3.20;99.90;;;;;;5005106;28;20494;-59
2024/02/13 09:43:46;;;;;;;37.30;14.10;;;3.40;99.90;;;;;;5007460;28;21002;-60
2024/02/13 09:46:16;;;;;;;28.60;14.37;;;3.50;99.90;;;;;;5004556;28;20512;-59
2024/02/13 09:48:46;;;;;;;34.47;13.73;;;3.70;99.90;;;;;;5003938;28;20505;-58
2024/02/13 09:51:18;;;;;;;33.60;13.27;;;3.90;99.90;;;;;;5003480;28;21068;-59
2024/02/13 09:53:46;;;;;;;23.50;12.10;;;4.10;99.90;;;;;;5006916;28;20467;-59
2024/02/13 09:56:14;;;;;;;31.80;13.30;;;4.40;99.90;;;;;;5006772;28;20467;-58
2024/02/13 09:58:41;;;;;;;28.90;12.53;;;4.60;99.90;;;;;;5008683;28;20408;-59
2024/02/13 10:01:07;;;;;;;23.47;10.10;;;4.80;99.90;;;;;;5005423;28;20442;-57
2024/02/13 10:03:37;;;;;;;24.10;9.27;;;5.00;99.90;;;;;;5004947;28;20430;-58
2024/02/13 10:06:04;;;;;;;25.33;8.30;;;5.20;99.90;;;;;;5004903;28;20446;-59
2024/02/13 10:08:31;;;;;;;19.50;8.40;;;5.50;99.90;;;;;;5004156;28;20423;-59
2024/02/13 10:11:12;;;;;;;12.30;6.30;;;5.70;99.90;;;;;;5006647;28;20475;-59
2024/02/13 10:13:39;;;;;;;14.53;5.93;;;6.00;99.90;;;;;;5003725;28;20412;-59
2024/02/13 10:16:17;;;;;;;19.83;7.23;;;6.20;99.90;;;;;;5005660;28;20461;-59
2024/02/13 10:18:44;;;;;;;27.13;9.90;;;6.50;99.90;;;;;;5006753;28;20411;-59
2024/02/13 10:21:11;;;;;;;24.97;9.77;;;6.70;99.90;;;;;;5005179;28;20981;-59
2024/02/13 10:23:38;;;;;;;22.00;8.57;;;6.90;99.90;;;;;;5004616;28;20435;-59
2024/02/13 10:26:08;;;;;;;17.80;7.50;;;7.00;99.90;;;;;;5001789;28;20966;-58
2024/02/13 10:28:34;;;;;;;20.77;9.70;;;7.10;99.90;;;;;;5001933;28;20522;-59
2024/02/13 10:30:59;;;;;;;13.73;5.03;;;7.20;99.90;;;;;;5003243;28;20531;-59
2024/02/13 10:33:25;;;;;;;14.63;5.60;;;7.20;99.90;;;;;;4992995;28;23396;-60
2024/02/13 10:35:58;;;;;;;10.37;5.13;;;7.20;96.40;;;;;;4996276;28;20295;-59
2024/02/13 10:38:29;;;;;;;18.53;3.23;;;7.10;94.60;;;;;;5003354;28;20184;-58
2024/02/13 10:41:01;;;;;;;10.73;2.40;;;7.00;92.30;;;;;;5002872;28;20482;-60
2024/02/13 10:43:28;;;;;;;5.93;2.40;;;6.90;91.70;;;;;;5005032;28;20770;-60
2024/02/13 10:45:57;;;;;;;3.23;2.33;;;6.90;90.70;;;;;;5004247;28;20435;-59
2024/02/13 10:48:45;;;;;;;6.93;1.90;;;6.80;84.20;;;;;;5007927;28;20498;-59
2024/02/13 10:51:17;;;;;;;5.73;1.70;;;6.70;79.30;;;;;;5002325;28;20487;-59
2024/02/13 10:53:47;;;;;;;5.53;1.83;;;6.70;76.70;;;;;;4998884;28;20481;-59
2024/02/13 10:56:14;;;;;;;4.80;2.33;;;6.80;75.50;;;;;;5009456;28;20459;-60
2024/02/13 10:58:43;;;;;;;4.43;1.50;;;6.80;70.60;;;;;;5011826;28;20523;-59
2024/02/13 11:01:11;;;;;;;3.20;1.70;;;6.80;70.80;;;;;;5008042;28;20550;-59
2024/02/13 11:03:38;;;;;;;2.97;1.33;;;6.70;70.10;;;;;;5009428;28;20446;-60
2024/02/13 11:06:05;;;;;;;3.80;1.80;;;6.70;70.70;;;;;;5002317;28;20452;-59
2024/02/13 11:08:31;;;;;;;4.07;1.60;;;6.70;70.80;;;;;;5011878;28;20411;-58
2024/02/13 11:10:59;;;;;;;1.60;1.43;;;6.70;71.40;;;;;;5012120;28;20897;-60
2024/02/13 11:13:26;;;;;;;2.53;1.60;;;6.70;71.50;;;;;;5009265;28;20486;-60
2024/02/13 11:15:58;;;;;;;7.30;2.30;;;6.60;67.40;;;;;;5010215;28;20988;-58
2024/02/13 11:18:26;;;;;;;5.90;1.50;;;6.60;66.40;;;;;;5008881;28;20407;-60
2024/02/13 11:20:53;;;;;;;3.67;1.30;;;6.70;68.30;;;;;;5006173;28;20895;-59
2024/02/13 11:23:18;;;;;;;3.23;1.20;;;6.80;67.40;;;;;;5011490;28;20415;-60
2024/02/13 11:25:58;;;;;;;2.67;1.10;;;6.90;65.00;;;;;;5011966;28;20414;-59
2024/02/13 11:28:31;;;;;;;7.10;1.30;;;6.90;63.70;;;;;;5009476;28;20610;-59
2024/02/13 11:30:57;;;;;;;6.33;2.50;;;6.90;63.40;;;;;;5011032;28;20801;-59
2024/02/13 11:33:23;;;;;;;3.80;1.50;;;6.90;62.90;;;;;;5010287;28;20533;-60
2024/02/13 11:35:54;;;;;;;4.17;2.07;;;6.90;62.50;;;;;;5010040;28;20207;-59
2024/02/13 11:38:24;;;;;;;6.33;2.57;;;7.00;63.10;;;;;;5005694;28;20546;-59
2024/02/13 11:41:02;;;;;;;4.70;1.17;;;7.10;63.50;;;;;;5010701;28;20474;-58
2024/02/13 11:43:28;;;;;;;2.30;1.43;;;7.40;63.60;;;;;;5007918;28;20435;-58
2024/02/13 11:45:57;;;;;;;3.63;1.57;;;7.60;62.00;;;;;;5008127;28;20407;-59
2024/02/13 11:48:25;;;;;;;1.50;1.40;;;7.60;61.40;;;;;;5004750;28;20180;-59
2024/02/13 11:50:55;;;;;;;1.83;1.17;;;7.70;60.80;;;;;;5010753;28;20443;-60
2024/02/13 11:53:22;;;;;;;6.93;1.57;;;7.70;60.50;;;;;;5004014;28;20443;-60
2024/02/13 11:55:49;;;;;;;1.40;1.30;;;7.80;59.80;;;;;;5004443;28;20467;-59
2024/02/13 11:58:19;;;;;;;6.13;1.87;;;7.80;59.30;;;;;;5005313;28;20478;-60
2024/02/13 12:01:03;;;;;;;4.20;1.73;;;7.80;58.40;;;;;;5008842;28;20497;-59
2024/02/13 12:03:30;;;;;;;1.43;1.33;;;7.80;58.50;;;;;;5006081;28;20430;-60
2024/02/13 12:05:57;;;;;;;2.50;1.50;;;7.80;58.30;;;;;;5004983;28;20443;-60
2024/02/13 12:08:24;;;;;;;3.73;1.17;;;8.00;59.00;;;;;;5010524;28;20506;-59
2024/02/13 12:10:52;;;;;;;4.07;1.40;;;8.20;58.30;;;;;;5003354;28;20485;-60
2024/02/13 12:13:19;;;;;;;2.30;1.40;;;8.20;58.40;;;;;;5006719;28;20443;-59
2024/02/13 12:15:46;;;;;;;2.97;1.30;;;8.20;58.40;;;;;;5010061;28;20465;-60
2024/02/13 12:18:12;;;;;;;1.30;1.20;;;8.20;57.50;;;;;;5007487;28;20431;-60
2024/02/13 12:20:38;;;;;;;3.43;1.50;;;8.10;57.40;;;;;;5007193;28;20585;-60
2024/02/13 12:23:06;;;;;;;6.10;1.97;;;8.00;57.40;;;;;;5005469;28;20192;-58
2024/02/13 12:25:35;;;;;;;3.20;1.43;;;8.00;57.50;;;;;;5007004;28;20225;-58
2024/02/13 12:28:05;;;;;;;1.83;1.67;;;8.00;57.40;;;;;;5004740;28;20567;-59
2024/02/13 12:30:33;;;;;;;2.47;1.50;;;8.00;57.10;;;;;;5011259;28;20438;-60
2024/02/13 12:33:09;;;;;;;2.83;1.77;;;8.00;57.10;;;;;;5000636;28;20444;-60
2024/02/13 12:35:36;;;;;;;5.03;1.40;;;8.00;57.00;;;;;;5008157;28;20912;-59
2024/02/13 12:38:14;;;;;;;4.67;1.60;;;8.00;57.60;;;;;;5006913;28;20973;-59
2024/02/13 12:40:41;;;;;;;5.87;2.00;;;8.00;57.50;;;;;;5006493;28;20520;-60
2024/02/13 12:43:08;;;;;;;3.37;1.47;;;8.10;58.20;;;;;;5003672;28;20423;-60
2024/02/13 12:45:41;;;;;;;4.37;2.10;;;8.10;58.10;;;;;;5007854;28;20432;-60
2024/02/13 12:48:10;;;;;;;2.70;1.83;;;8.10;58.10;;;;;;5006917;28;20514;-60
2024/02/13 12:50:37;;;;;;;4.53;1.67;;;8.10;57.80;;;;;;5008265;28;20916;-59
2024/02/13 12:53:04;;;;;;;7.00;1.97;;;8.10;57.60;;;;;;5009179;28;20440;-60